Time;durP1;ratioP1;P1;durP2;ratioP2;P2;SDS_P1;SDS_P2;PMS_P1;PMS_P2;Temp;Humidity;BMP_temperature;BMP_pressure;BME280_temperature;BME280_humidity;BME280_pressure;Samples;Min_cycle;Max_cycle;Signal;HPM_P1;HPM_P2
2022/12/25 00:00:07;;;;;;;4.10;3.10;;;;;;;6.89;62.58;94167.84;5002949;28;20080;-76
2022/12/25 00:02:32;;;;;;;4.70;4.00;;;;;;;6.76;62.90;94154.22;5001994;28;20069;-76
2022/12/25 00:04:57;;;;;;;4.85;4.15;;;;;;;6.89;63.39;94178.41;5000684;28;20069;-76
2022/12/25 00:07:23;;;;;;;7.30;3.90;;;;;;;6.72;63.60;94184.13;4999674;28;20042;-78
2022/12/25 00:09:48;;;;;;;4.43;3.65;;;;;;;6.86;63.46;94193.75;4999268;28;20030;-77
2022/12/25 00:12:13;;;;;;;5.00;3.72;;;;;;;6.67;64.33;94211.41;5002670;28;20022;-75
2022/12/25 00:14:39;;;;;;;5.53;3.90;;;;;;;6.73;64.66;94214.78;4998417;28;20067;-76
2022/12/25 00:17:04;;;;;;;6.13;4.40;;;;;;;6.63;64.94;94212.22;4998042;28;20037;-75
2022/12/25 00:19:29;;;;;;;7.95;5.00;;;;;;;6.61;65.32;94207.22;4997809;28;20037;-76
2022/12/25 00:21:55;;;;;;;8.40;4.55;;;;;;;6.46;66.33;94209.97;4998603;28;20084;-75
2022/12/25 00:24:20;;;;;;;7.30;5.68;;;;;;;6.32;67.58;94216.97;5000497;28;20021;-76
2022/12/25 00:26:46;;;;;;;4.63;4.00;;;;;;;6.15;67.77;94198.84;4999797;28;20034;-76
2022/12/25 00:29:12;;;;;;;6.07;4.63;;;;;;;6.25;67.99;94203.31;4999259;28;20128;-75
2022/12/25 00:31:40;;;;;;;4.60;4.10;;;;;;;6.43;67.39;94210.53;5000809;28;20572;-75
2022/12/25 00:34:06;;;;;;;4.53;3.90;;;;;;;6.51;66.41;94211.78;5002163;28;20071;-76
2022/12/25 00:36:31;;;;;;;4.78;3.80;;;;;;;6.42;66.28;94193.91;5003490;28;20029;-76
2022/12/25 00:38:57;;;;;;;4.55;3.10;;;;;;;6.38;66.32;94202.66;5002763;28;20034;-77
2022/12/25 00:44:11;;;;;;;4.90;3.50;;;;;;;6.86;64.27;94206.97;5001063;28;20601;-76
2022/12/25 00:46:36;;;;;;;3.55;2.63;;;;;;;6.99;63.05;94217.97;5000472;28;20034;-77
2022/12/25 00:49:02;;;;;;;8.20;4.78;;;;;;;6.82;62.73;94191.94;4999280;28;20030;-76
2022/12/25 00:51:27;;;;;;;8.32;5.65;;;;;;;6.95;62.17;94190.50;5002523;28;20021;-76
2022/12/25 00:53:53;;;;;;;6.80;4.53;;;;;;;7.07;61.76;94201.47;4999914;28;21001;-77
2022/12/25 00:56:18;;;;;;;7.57;4.45;;;;;;;7.32;60.45;94211.78;5001336;28;20056;-76
2022/12/25 00:58:44;;;;;;;3.20;2.85;;;;;;;7.27;60.41;94217.13;4994108;28;20069;-76
2022/12/25 01:01:10;;;;;;;3.53;3.08;;;;;;;7.33;60.27;94229.25;4998340;28;20026;-76
2022/12/25 01:03:36;;;;;;;2.35;2.15;;;;;;;7.17;60.14;94214.59;5000638;28;20116;-76
2022/12/25 01:06:06;;;;;;;3.22;2.78;;;;;;;7.16;61.11;94231.53;4999463;28;20034;-76
2022/12/25 01:08:34;;;;;;;4.78;3.40;;;;;;;7.20;61.00;94229.91;5016683;28;20034;-76
2022/12/25 01:11:02;;;;;;;5.05;2.95;;;;;;;7.00;61.15;94214.25;4997781;28;20026;-77
2022/12/25 01:13:29;;;;;;;3.97;3.17;;;;;;;6.93;61.73;94209.31;5013625;28;20041;-76
2022/12/25 01:15:54;;;;;;;4.78;3.55;;;;;;;7.07;61.65;94230.56;4997382;28;20060;-77
2022/12/25 01:18:21;;;;;;;4.55;3.30;;;;;;;6.96;61.74;94213.22;5002621;28;20030;-76
2022/12/25 01:20:47;;;;;;;3.78;3.10;;;;;;;7.00;61.82;94214.25;5000246;28;20124;-75
2022/12/25 01:23:13;;;;;;;2.67;2.40;;;;;;;6.90;62.12;94214.38;5005835;28;20093;-77
2022/12/25 01:25:38;;;;;;;4.50;3.20;;;;;;;6.74;62.82;94217.16;5004151;28;20045;-76
2022/12/25 01:28:04;;;;;;;3.78;2.70;;;;;;;6.81;62.82;94214.97;5002708;28;20037;-76
2022/12/25 01:30:30;;;;;;;5.47;3.15;;;;;;;6.89;62.48;94224.16;5005495;28;20034;-77
2022/12/25 01:32:56;;;;;;;2.70;2.45;;;;;;;6.71;62.75;94222.19;5003037;28;20136;-77
2022/12/25 01:35:21;;;;;;;4.78;3.00;;;;;;;6.65;63.12;94221.44;5000287;28;20214;-77
2022/12/25 01:37:46;;;;;;;7.22;4.00;;;;;;;6.48;63.54;94212.34;5005689;28;20025;-76
2022/12/25 01:40:12;;;;;;;3.67;3.35;;;;;;;6.57;62.63;94194.84;5007384;28;20042;-75
2022/12/25 01:42:37;;;;;;;3.83;3.30;;;;;;;6.49;62.87;94206.81;5004648;28;20172;-76
2022/12/25 01:45:34;;;;;;;4.35;3.10;;;;;;;6.36;64.15;94225.94;5001913;28;20122;-75
2022/12/25 01:48:03;;;;;;;4.97;3.97;;;;;;;6.12;64.65;94209.97;5000173;28;20073;-75
2022/12/25 01:50:28;;;;;;;5.82;3.50;;;;;;;6.02;65.00;94194.97;5003252;28;20053;-76
2022/12/25 01:52:55;;;;;;;5.68;3.60;;;;;;;6.21;64.38;94224.22;5002193;28;20036;-76
2022/12/25 01:55:21;;;;;;;4.43;3.38;;;;;;;6.05;65.22;94209.50;5002590;28;20343;-75
2022/12/25 01:57:47;;;;;;;5.82;3.05;;;;;;;6.13;64.32;94219.47;5017198;28;20038;-75
2022/12/25 02:00:13;;;;;;;4.57;3.28;;;;;;;5.94;64.76;94219.31;5001388;28;20028;-74
2022/12/25 02:02:40;;;;;;;3.50;3.15;;;;;;;5.96;64.70;94226.97;5002109;28;20034;-75
2022/12/25 02:05:14;;;;;;;5.57;3.80;;;;;;;6.02;64.19;94224.03;5000636;28;20034;-75
2022/12/25 02:07:41;;;;;;;4.22;3.03;;;;;;;5.92;64.50;94229.34;5017528;28;20901;-76
2022/12/25 02:10:09;;;;;;;4.32;2.92;;;;;;;5.99;64.55;94234.34;5017981;28;20108;-77
2022/12/25 02:12:36;;;;;;;5.40;3.67;;;;;;;5.92;63.91;94226.72;5003969;28;20263;-76
2022/12/25 02:15:08;;;;;;;9.07;3.38;;;;;;;5.82;64.50;94239.97;5001386;28;20065;-76
2022/12/25 02:17:43;;;;;;;5.25;3.75;;;;;;;5.85;64.30;94236.81;5002416;28;20051;-76
2022/12/25 02:20:11;;;;;;;3.53;3.22;;;;;;;5.90;63.43;94230.72;5000650;28;20030;-77
2022/12/25 02:22:37;;;;;;;6.65;3.03;;;;;;;5.97;62.52;94226.69;5002873;28;20475;-76
2022/12/25 02:25:23;;;;;;;4.90;3.03;;;;;;;5.93;61.89;94223.03;5001093;28;20033;-78
2022/12/25 02:28:08;;;;;;;6.45;3.42;;;;;;;5.94;62.12;94235.16;5001368;28;20030;-75
2022/12/25 02:30:39;;;;;;;3.95;3.35;;;;;;;5.88;62.68;94223.06;4997797;28;20677;-77
2022/12/25 02:36:12;;;;;;;4.13;2.95;;;;;;;5.92;61.51;94197.69;5003935;28;20068;-75
2022/12/25 02:39:56;;;;;;;8.70;2.97;;;;;;;5.94;60.61;94214.03;5000828;28;20120;-76
2022/12/25 02:41:33;;;;;;;3.50;2.70;;;;;;;6.12;60.41;94219.72;4999450;28;20038;-76
2022/12/25 03:06:42;;;;;;;2.90;2.28;;;;;;;5.92;57.54;94234.63;5004091;28;20036;-76
2022/12/25 03:12:14;;;;;;;3.83;2.50;;;;;;;5.92;57.07;94228.59;5001096;28;21087;-75
2022/12/25 03:17:24;;;;;;;3.25;2.13;;;;;;;5.77;57.33;94240.03;5001791;28;20648;-75
2022/12/25 03:28:03;;;;;;;6.25;2.40;;;;;;;6.05;56.44;94261.50;5000870;28;20093;-76
2022/12/25 03:31:12;;;;;;;3.72;2.80;;;;;;;6.13;56.55;94264.34;5001113;28;20030;-76
2022/12/25 04:38:33;;;;;;;4.57;3.10;;;;;;;5.83;55.78;94280.34;5000371;28;20146;-76
2022/12/25 04:41:00;;;;;;;3.70;2.10;;;;;;;5.94;56.46;94303.81;4996386;28;20030;-76
2022/12/25 04:43:26;;;;;;;3.20;2.00;;;;;;;6.15;55.92;94319.56;5000531;28;20038;-76
2022/12/25 04:45:56;;;;;;;4.13;2.83;;;;;;;5.97;55.90;94307.75;4998519;28;20495;-75
2022/12/25 04:48:22;;;;;;;5.22;2.80;;;;;;;5.98;56.62;94315.41;5000755;28;20021;-77
2022/12/25 04:50:48;;;;;;;6.90;2.60;;;;;;;6.02;56.96;94329.63;4999540;28;20053;-76
2022/12/25 04:53:13;;;;;;;4.78;2.28;;;;;;;5.97;56.96;94321.75;5005960;28;20121;-75
2022/12/25 04:55:39;;;;;;;2.50;2.13;;;;;;;5.94;56.97;94319.66;5005033;28;20029;-76
2022/12/25 04:58:04;;;;;;;6.57;2.78;;;;;;;5.90;57.21;94323.09;5004805;28;20639;-77
2022/12/25 05:00:29;;;;;;;3.05;2.53;;;;;;;5.92;57.58;94334.97;5006888;28;20472;-77
2022/12/25 05:02:56;;;;;;;6.28;2.15;;;;;;;5.91;57.59;94324.69;5002651;28;20118;-75
2022/12/25 05:05:22;;;;;;;4.88;3.50;;;;;;;5.79;57.96;94335.56;5002643;28;20041;-75
2022/12/25 05:07:47;;;;;;;2.25;2.03;;;;;;;5.81;58.14;94319.47;5006077;28;20038;-76
2022/12/25 05:10:13;;;;;;;4.15;2.50;;;;;;;5.88;57.67;94331.28;5001973;28;20053;-76
2022/12/25 05:12:38;;;;;;;3.47;2.53;;;;;;;6.02;57.44;94333.34;5003779;28;20030;-76
2022/12/25 05:15:03;;;;;;;2.65;2.42;;;;;;;5.98;57.19;94335.72;5004682;28;20117;-76
2022/12/25 05:17:29;;;;;;;2.42;2.10;;;;;;;5.99;57.03;94330.19;5004282;28;20587;-75
2022/12/25 05:19:54;;;;;;;4.80;2.30;;;;;;;5.83;57.39;94323.38;5001970;28;20042;-76
2022/12/25 05:22:20;;;;;;;5.22;2.40;;;;;;;5.97;57.32;94329.66;5003250;28;20133;-76
2022/12/25 05:24:45;;;;;;;3.72;1.85;;;;;;;5.99;57.05;94338.09;5003959;28;20119;-75
2022/12/25 05:27:10;;;;;;;1.95;1.50;;;;;;;5.89;57.01;94343.44;5001256;28;20144;-76
2022/12/25 05:29:36;;;;;;;2.13;1.90;;;;;;;5.97;57.01;94342.06;5002958;28;20527;-75
2022/12/25 05:32:01;;;;;;;2.05;1.73;;;;;;;5.83;56.16;94323.38;5000672;28;20056;-76
2022/12/25 05:34:26;;;;;;;2.97;1.90;;;;;;;5.84;56.88;94343.44;5004548;28;20030;-75
2022/12/25 05:36:52;;;;;;;2.47;1.42;;;;;;;5.77;56.63;94340.34;5000487;28;20395;-76
2022/12/25 05:39:17;;;;;;;1.90;1.48;;;;;;;5.73;56.88;94344.53;5003354;28;20013;-77
2022/12/25 05:41:43;;;;;;;1.30;1.20;;;;;;;5.57;56.89;94340.38;5016023;28;20527;-75
2022/12/25 05:44:09;;;;;;;3.13;1.42;;;;;;;5.54;57.03;94340.91;5004619;28;20136;-75
2022/12/25 05:46:34;;;;;;;5.18;1.58;;;;;;;5.46;57.61;94338.84;5002019;28;20456;-76
2022/12/25 05:48:59;;;;;;;2.25;1.50;;;;;;;5.54;57.79;94362.03;5000849;28;20730;-76
2022/12/25 05:51:25;;;;;;;5.35;1.33;;;;;;;5.54;57.61;94346.19;5004973;28;20025;-77
2022/12/25 05:53:50;;;;;;;2.53;1.67;;;;;;;5.61;57.41;94353.84;5002577;28;20080;-76
2022/12/25 05:56:16;;;;;;;2.30;1.20;;;;;;;5.61;57.43;94344.06;5001302;28;20396;-77
2022/12/25 05:58:42;;;;;;;2.65;1.50;;;;;;;5.74;57.36;94367.25;5001488;28;20133;-76
2022/12/25 06:01:16;;;;;;;6.63;1.50;;;;;;;5.68;57.11;94360.41;5001098;28;20034;-75
2022/12/25 06:03:41;;;;;;;3.65;2.17;;;;;;;5.57;57.38;94351.75;5005026;28;20034;-75
2022/12/25 06:06:08;;;;;;;6.13;1.40;;;;;;;5.74;57.41;94371.72;5003536;28;20093;-76
2022/12/25 06:08:33;;;;;;;3.42;1.45;;;;;;;5.72;57.13;94373.88;5001595;28;20030;-77
2022/12/25 06:11:03;;;;;;;5.38;1.92;;;;;;;5.78;57.17;94372.75;5002594;28;20136;-76
2022/12/25 06:13:28;;;;;;;3.33;1.67;;;;;;;5.72;57.07;94358.03;5001469;28;20518;-77
2022/12/25 06:15:54;;;;;;;4.30;1.60;;;;;;;5.80;57.27;94371.44;5003479;28;20041;-76
2022/12/25 06:18:19;;;;;;;5.45;1.70;;;;;;;5.86;57.00;94372.22;5001514;28;20049;-77
2022/12/25 06:20:44;;;;;;;1.90;1.40;;;;;;;5.76;57.52;94375.69;5002616;28;20042;-74
2022/12/25 06:23:10;;;;;;;1.77;1.50;;;;;;;5.56;58.39;94386.31;5001002;28;20030;-75
2022/12/25 06:25:38;;;;;;;1.52;1.20;;;;;;;5.38;58.36;94371.03;5001208;28;20976;-75
2022/12/25 06:28:04;;;;;;;6.30;1.35;;;;;;;5.57;58.16;94398.44;5001930;28;20026;-76
2022/12/25 06:30:29;;;;;;;2.88;1.42;;;;;;;5.64;58.24;94398.16;5003469;28;20495;-75
2022/12/25 06:32:54;;;;;;;2.90;1.40;;;;;;;5.62;58.02;94393.16;5002960;28;20098;-76
2022/12/25 06:35:20;;;;;;;2.22;1.30;;;;;;;5.62;58.44;94405.56;5001344;28;20073;-76
2022/12/25 06:37:45;;;;;;;2.70;1.58;;;;;;;5.77;58.09;94410.81;4994840;28;20041;-75
2022/12/25 06:40:12;;;;;;;1.23;1.13;;;;;;;5.68;57.96;94389.41;4994604;28;20088;-73
2022/12/25 06:42:37;;;;;;;1.50;1.40;;;;;;;5.72;58.27;94421.38;4995025;28;20618;-75
2022/12/25 06:45:03;;;;;;;2.33;1.58;;;;;;;5.86;57.72;94409.97;4995167;28;20563;-74
2022/12/25 06:47:29;;;;;;;2.60;1.60;;;;;;;5.76;57.60;94402.09;4994344;28;20120;-74
2022/12/25 06:49:54;;;;;;;2.67;1.83;;;;;;;5.76;57.21;94388.09;4994167;28;20037;-74
2022/12/25 06:52:20;;;;;;;4.70;1.70;;;;;;;5.91;57.58;94431.09;4993909;28;20924;-74
2022/12/25 06:54:46;;;;;;;2.53;1.45;;;;;;;5.85;57.46;94416.31;4996928;28;20132;-75
2022/12/25 06:57:11;;;;;;;2.95;1.48;;;;;;;6.00;57.32;94434.75;4993823;28;20044;-73
2022/12/25 06:59:36;;;;;;;3.38;2.17;;;;;;;5.99;57.41;94442.94;4994006;28;20074;-76
2022/12/25 07:02:02;;;;;;;5.53;1.80;;;;;;;5.83;57.55;94413.13;4993730;28;20091;-74
2022/12/25 07:04:39;;;;;;;5.80;1.63;;;;;;;5.98;57.36;94434.22;4996117;28;20042;-74
2022/12/25 07:07:06;;;;;;;3.88;1.63;;;;;;;5.98;57.71;94444.78;4995537;28;20025;-75
2022/12/25 07:09:32;;;;;;;2.75;1.70;;;;;;;5.90;58.27;94457.75;4993948;28;20026;-75
2022/12/25 07:12:13;;;;;;;4.55;2.40;;;;;;;5.74;58.53;94441.16;4993843;28;20070;-76
2022/12/25 07:14:39;;;;;;;3.15;2.00;;;;;;;5.76;58.38;94444.31;4995005;28;20092;-74
2022/12/25 07:17:05;;;;;;;2.88;1.92;;;;;;;5.67;58.72;94430.09;4993639;28;20504;-76
2022/12/25 07:19:31;;;;;;;5.82;2.85;;;;;;;5.90;58.49;94466.47;5011742;28;20072;-73
2022/12/25 07:21:56;;;;;;;4.50;2.38;;;;;;;5.99;58.24;94464.84;4991836;28;20722;-76
2022/12/25 07:24:22;;;;;;;3.22;2.30;;;;;;;6.02;58.28;94472.22;4994891;28;20305;-74
2022/12/25 07:26:49;;;;;;;6.72;2.50;;;;;;;5.94;58.19;94458.78;4990870;28;20102;-74
2022/12/25 07:29:15;;;;;;;4.30;2.60;;;;;;;6.07;58.30;94460.09;4996672;28;20554;-73
2022/12/25 07:31:40;;;;;;;3.58;1.90;;;;;;;6.15;57.83;94467.44;4993646;28;20046;-75
2022/12/25 07:34:06;;;;;;;3.60;1.83;;;;;;;6.22;57.91;94481.19;4996661;28;20104;-74
2022/12/25 07:36:31;;;;;;;4.28;1.92;;;;;;;6.32;57.51;94473.22;4991634;28;20096;-75
2022/12/25 07:38:57;;;;;;;2.60;1.77;;;;;;;6.09;57.74;94450.81;4994251;28;20061;-74
2022/12/25 07:41:22;;;;;;;8.70;2.75;;;;;;;6.19;57.71;94469.31;4993297;28;20034;-75
2022/12/25 07:43:50;;;;;;;2.60;1.60;;;;;;;6.05;58.45;94481.47;4995244;28;20069;-74
2022/12/25 07:46:15;;;;;;;3.88;2.47;;;;;;;6.20;58.53;94501.81;4992767;28;20064;-75
2022/12/25 07:48:40;;;;;;;1.92;1.73;;;;;;;6.16;58.18;94500.78;4989430;28;20476;-73
2022/12/25 07:51:10;;;;;;;3.78;1.58;;;;;;;6.19;58.17;94505.50;4992417;28;20538;-74
2022/12/25 07:53:36;;;;;;;2.38;2.17;;;;;;;6.21;58.16;94500.75;4994439;28;20052;-74
2022/12/25 07:56:07;;;;;;;3.35;1.98;;;;;;;6.38;57.88;94514.41;4992932;28;20703;-73
2022/12/25 07:58:33;;;;;;;5.72;2.03;;;;;;;6.30;57.75;94507.06;5008717;28;20573;-74
2022/12/25 08:01:05;;;;;;;5.10;2.40;;;;;;;6.49;57.51;94521.25;4993125;28;20030;-73
2022/12/25 08:03:32;;;;;;;2.72;2.38;;;;;;;6.58;57.05;94503.78;4994823;28;20037;-75
2022/12/25 08:06:02;;;;;;;4.15;1.73;;;;;;;6.57;56.84;94504.84;4991151;28;20038;-74
2022/12/25 08:08:28;;;;;;;6.22;2.40;;;;;;;6.56;56.77;94529.69;4993649;28;20026;-74
2022/12/25 08:10:53;;;;;;;2.30;1.70;;;;;;;6.40;56.89;94520.25;4993700;28;20041;-74
2022/12/25 08:13:19;;;;;;;3.42;1.98;;;;;;;6.60;56.73;94522.81;4992766;28;20034;-73
2022/12/25 08:15:45;;;;;;;3.60;1.98;;;;;;;6.63;56.26;94495.84;4994179;28;20056;-74
2022/12/25 08:18:10;;;;;;;5.25;1.75;;;;;;;6.86;55.88;94526.13;4993004;28;20031;-75
2022/12/25 08:20:36;;;;;;;4.55;1.67;;;;;;;6.89;55.88;94514.22;4993412;28;20080;-76
2022/12/25 08:23:01;;;;;;;6.20;3.33;;;;;;;7.04;55.59;94508.84;4993834;28;20165;-76
2022/12/25 08:25:27;;;;;;;2.60;2.00;;;;;;;7.17;55.07;94505.59;4992974;28;20030;-74
2022/12/25 08:27:52;;;;;;;2.90;2.53;;;;;;;7.35;54.55;94512.06;4993890;28;20026;-74
2022/12/25 08:30:18;;;;;;;2.63;1.70;;;;;;;7.24;54.40;94498.13;4992762;28;20069;-75
2022/12/25 08:32:43;;;;;;;6.30;2.80;;;;;;;7.39;54.58;94513.09;4994545;28;20074;-74
2022/12/25 08:35:09;;;;;;;4.78;2.30;;;;;;;7.51;54.43;94495.03;4991958;28;20108;-74
2022/12/25 08:37:34;;;;;;;3.08;1.83;;;;;;;7.73;53.20;94502.56;4995060;28;20038;-74
2022/12/25 08:39:59;;;;;;;4.68;2.22;;;;;;;7.42;53.01;94471.00;4990911;28;20025;-73
2022/12/25 08:42:25;;;;;;;3.17;2.03;;;;;;;7.44;53.33;94502.47;4993255;28;20454;-74
2022/12/25 08:44:50;;;;;;;4.53;1.83;;;;;;;7.46;52.56;94517.03;4991284;28;20065;-74
2022/12/25 08:47:16;;;;;;;3.53;2.88;;;;;;;7.60;53.12;94519.84;4994150;28;20066;-74
2022/12/25 08:49:41;;;;;;;5.47;2.28;;;;;;;7.61;52.98;94529.34;4992770;28;20651;-74
2022/12/25 08:52:06;;;;;;;2.97;1.80;;;;;;;7.30;52.95;94515.53;4995438;28;20034;-74
2022/12/25 08:54:35;;;;;;;4.85;1.80;;;;;;;7.42;53.32;94513.34;4992847;28;20400;-73
2022/12/25 08:57:01;;;;;;;8.63;4.85;;;;;;;7.53;53.20;94529.97;4990035;28;20034;-75
2022/12/25 08:59:26;;;;;;;2.75;1.70;;;;;;;7.64;52.39;94513.72;4993466;28;20567;-74
2022/12/25 09:01:51;;;;;;;4.75;1.60;;;;;;;7.83;52.52;94523.63;4993691;28;20330;-75
2022/12/25 09:04:17;;;;;;;9.23;5.55;;;;;;;7.83;51.89;94523.63;4993612;28;20520;-74
2022/12/25 09:06:42;;;;;;;14.25;8.23;;;;;;;7.88;51.75;94523.59;4996030;28;20037;-75
2022/12/25 09:09:08;;;;;;;2.78;1.70;;;;;;;7.80;51.38;94518.91;4990126;28;20085;-75
2022/12/25 09:11:33;;;;;;;6.68;3.38;;;;;;;7.97;51.96;94535.19;4994238;28;20583;-74
2022/12/25 09:13:59;;;;;;;4.97;2.42;;;;;;;7.96;51.39;94526.44;4991566;28;20034;-74
2022/12/25 09:16:25;;;;;;;1.83;1.38;;;;;;;7.92;51.06;94506.91;5009494;28;20077;-75
2022/12/25 09:18:50;;;;;;;2.60;1.90;;;;;;;8.13;50.54;94533.97;4990535;28;20105;-75
2022/12/25 09:21:17;;;;;;;6.88;2.13;;;;;;;8.16;50.20;94533.41;4993665;28;20104;-74
2022/12/25 09:23:43;;;;;;;4.82;3.70;;;;;;;8.05;50.54;94531.94;4992323;28;20041;-74
2022/12/25 09:26:12;;;;;;;4.88;2.65;;;;;;;8.08;50.62;94531.34;4990969;28;20045;-75
2022/12/25 09:28:38;;;;;;;3.70;1.65;;;;;;;8.04;50.41;94515.25;5006553;28;20085;-74
2022/12/25 09:31:04;;;;;;;1.35;1.20;;;;;;;8.00;50.33;94524.03;4994390;28;20034;-75
2022/12/25 09:33:29;;;;;;;1.60;1.20;;;;;;;8.01;50.95;94530.91;4991088;28;20619;-74
2022/12/25 09:35:57;;;;;;;2.08;1.40;;;;;;;8.19;50.74;94527.56;4994234;28;20508;-74
2022/12/25 09:38:23;;;;;;;5.63;2.72;;;;;;;8.29;50.09;94534.59;4994373;28;20030;-75
2022/12/25 09:41:07;;;;;;;6.22;2.53;;;;;;;8.23;49.52;94533.06;4997667;28;20135;-74
2022/12/25 09:43:43;;;;;;;2.92;1.85;;;;;;;8.15;49.92;94524.69;5013122;28;20419;-75
2022/12/25 09:46:14;;;;;;;3.22;2.63;;;;;;;8.19;49.49;94505.56;4995076;28;20480;-74
2022/12/25 09:48:49;;;;;;;5.13;2.08;;;;;;;8.53;49.42;94520.28;4996653;28;20685;-75
2022/12/25 09:51:17;;;;;;;16.30;9.18;;;;;;;8.69;49.30;94514.81;4994616;28;20065;-74
2022/12/25 09:53:54;;;;;;;5.35;2.63;;;;;;;8.66;48.55;94489.63;4996840;28;20512;-75
2022/12/25 09:56:27;;;;;;;6.32;4.00;;;;;;;8.97;48.11;94490.03;4989524;28;20033;-74
2022/12/25 09:58:53;;;;;;;1.60;1.50;;;;;;;8.79;47.87;94493.47;4993801;28;20509;-76
2022/12/25 10:01:47;;;;;;;7.38;4.72;;;;;;;8.96;48.64;94504.38;4993413;28;20038;-75
2022/12/25 10:04:23;;;;;;;3.25;2.58;;;;;;;9.00;47.92;94495.56;4995788;28;20045;-75
2022/12/25 10:07:07;;;;;;;1.88;1.20;;;;;;;9.15;47.43;94513.16;4997788;28;20041;-74
2022/12/25 10:09:44;;;;;;;1.63;1.13;;;;;;;9.14;47.53;94506.31;4997045;28;20492;-75
2022/12/25 10:12:28;;;;;;;2.13;1.30;;;;;;;9.15;47.52;94499.91;4992298;28;20030;-73
2022/12/25 10:15:12;;;;;;;3.23;1.20;;;;;;;9.20;47.18;94505.13;4995523;28;20171;-73
2022/12/25 10:18:06;;;;;;;4.93;3.17;;;;;;;9.42;47.02;94505.34;4994959;28;20488;-72
2022/12/25 10:20:54;;;;;;;12.00;5.25;;;;;;;9.61;46.76;94504.53;4993233;28;20115;-73
2022/12/25 10:23:40;;;;;;;10.45;6.82;;;;;;;9.65;47.05;94505.53;4991676;28;20049;-73
2022/12/25 10:26:19;;;;;;;4.75;2.33;;;;;;;9.44;46.50;94489.91;4988589;28;20504;-73
2022/12/25 10:28:50;;;;;;;5.65;4.30;;;;;;;9.53;46.93;94491.94;4994660;28;20412;-73
2022/12/25 10:31:22;;;;;;;11.13;8.05;;;;;;;9.67;46.69;94504.19;4996449;28;20037;-72
2022/12/25 10:33:49;;;;;;;12.75;11.43;;;;;;;9.36;47.38;94487.13;4994471;28;20040;-72
2022/12/25 10:36:18;;;;;;;6.75;6.03;;;;;;;9.25;47.72;94504.28;4996309;28;20552;-74
2022/12/25 10:38:45;;;;;;;9.27;8.50;;;;;;;9.12;47.98;94503.13;4995516;28;20061;-74
2022/12/25 10:41:26;;;;;;;3.45;2.60;;;;;;;9.20;47.91;94499.81;4994234;28;20056;-75
2022/12/25 10:43:56;;;;;;;5.38;4.20;;;;;;;9.34;47.52;94494.59;4996639;28;20041;-75
2022/12/25 10:46:25;;;;;;;4.38;3.00;;;;;;;9.38;47.18;94501.72;4993148;28;20046;-74
2022/12/25 10:48:56;;;;;;;4.40;2.17;;;;;;;9.36;47.48;94503.84;4995112;28;20037;-75
2022/12/25 10:51:35;;;;;;;2.92;2.58;;;;;;;9.60;46.51;94503.75;4992934;28;20069;-74
2022/12/25 10:54:03;;;;;;;2.30;1.85;;;;;;;9.53;46.50;94506.00;4995940;28;20493;-75
2022/12/25 10:56:29;;;;;;;3.05;2.15;;;;;;;9.49;46.92;94485.63;4996112;28;20040;-75
2022/12/25 10:59:09;;;;;;;3.33;1.70;;;;;;;9.50;47.34;94498.59;4992656;28;20444;-75
2022/12/25 11:01:34;;;;;;;4.50;2.58;;;;;;;9.67;47.22;94509.50;4995864;28;20045;-73
2022/12/25 11:04:00;;;;;;;2.78;2.05;;;;;;;9.69;46.87;94490.59;4995341;28;20503;-75
2022/12/25 11:06:28;;;;;;;3.78;1.85;;;;;;;9.69;46.87;94502.00;4995827;28;20200;-75
2022/12/25 11:08:56;;;;;;;5.82;2.15;;;;;;;9.70;46.93;94492.97;4992967;28;20065;-75
2022/12/25 11:11:23;;;;;;;3.30;2.45;;;;;;;9.58;46.54;94463.44;4994807;28;20148;-74
2022/12/25 11:13:55;;;;;;;7.15;2.80;;;;;;;9.80;46.34;94503.44;4993512;28;20763;-74
2022/12/25 11:16:26;;;;;;;4.43;2.13;;;;;;;9.88;46.01;94505.41;4995616;28;20149;-73
2022/12/25 11:18:53;;;;;;;5.13;2.35;;;;;;;9.75;46.40;94490.22;4992328;28;20034;-75
2022/12/25 11:21:23;;;;;;;4.50;2.63;;;;;;;9.84;46.56;94501.75;5010614;28;20613;-75
2022/12/25 11:23:55;;;;;;;4.03;2.70;;;;;;;9.94;46.06;94500.78;5009577;28;20041;-74
2022/12/25 11:26:20;;;;;;;6.53;3.50;;;;;;;9.82;46.36;94489.84;4993546;28;20034;-76
2022/12/25 11:28:49;;;;;;;4.20;3.17;;;;;;;9.87;46.37;94497.75;4993341;28;20045;-76
2022/12/25 11:31:20;;;;;;;8.02;4.90;;;;;;;10.09;46.06;94507.72;4994351;28;20057;-74
2022/12/25 11:34:04;;;;;;;13.02;7.40;;;;;;;10.01;46.03;94503.09;4992574;28;20057;-74
2022/12/25 11:36:50;;;;;;;9.23;6.43;;;;;;;10.09;46.10;94484.59;4993277;28;20084;-74
2022/12/25 11:39:34;;;;;;;10.60;6.45;;;;;;;10.29;45.74;94494.84;4974417;28;20076;-74
2022/12/25 11:42:36;;;;;;;7.38;2.80;;;;;;;10.09;46.53;94502.41;4987324;28;20031;-74
2022/12/25 11:45:12;;;;;;;3.13;1.85;;;;;;;9.97;46.52;94502.88;4993253;28;20036;-73
2022/12/25 11:47:46;;;;;;;2.35;1.52;;;;;;;9.70;46.62;94489.50;4988791;28;20588;-75
2022/12/25 11:50:29;;;;;;;2.78;1.92;;;;;;;9.66;47.00;94481.34;4995335;28;20046;-74
2022/12/25 11:52:59;;;;;;;1.60;1.40;;;;;;;9.52;47.32;94488.47;4992354;28;20048;-73
2022/12/25 11:55:42;;;;;;;2.88;1.60;;;;;;;9.39;47.37;94479.38;4994735;28;20034;-73
2022/12/25 11:58:23;;;;;;;3.58;1.35;;;;;;;9.36;47.66;94490.56;4992395;28;20563;-75
2022/12/25 12:00:53;;;;;;;3.50;1.52;;;;;;;9.07;48.36;94494.41;4993085;28;20029;-74
2022/12/25 12:03:34;;;;;;;4.38;2.15;;;;;;;9.12;48.04;94492.53;4991823;28;20022;-75
2022/12/25 12:06:27;;;;;;;3.15;2.20;;;;;;;9.03;47.80;94484.38;5006140;28;20031;-73
2022/12/25 12:09:00;;;;;;;1.45;1.20;;;;;;;8.96;47.81;94488.47;4993164;28;20040;-74
2022/12/25 12:11:38;;;;;;;3.00;1.60;;;;;;;8.93;48.62;94499.66;4995375;28;20116;-74
2022/12/25 12:14:18;;;;;;;4.63;2.30;;;;;;;8.84;48.46;94470.34;4990438;28;20041;-74
2022/12/25 12:16:43;;;;;;;5.45;4.38;;;;;;;9.16;47.81;94498.81;4993736;28;20041;-73
2022/12/25 12:19:25;;;;;;;4.95;1.95;;;;;;;9.21;47.50;94496.09;4993302;28;20456;-75
2022/12/25 12:21:53;;;;;;;4.03;2.78;;;;;;;9.21;47.31;94496.09;4992179;28;20080;-73
2022/12/25 12:24:21;;;;;;;2.20;1.92;;;;;;;9.11;47.62;94500.72;4993149;28;20030;-73
2022/12/25 12:27:01;;;;;;;3.72;1.73;;;;;;;8.97;47.37;94490.84;4991877;28;20038;-74
2022/12/25 12:29:30;;;;;;;2.53;1.90;;;;;;;9.11;47.63;94506.84;4994692;28;20073;-73
2022/12/25 12:32:19;;;;;;;2.92;1.20;;;;;;;8.88;47.13;94486.47;4990452;28;20528;-73
2022/12/25 12:34:48;;;;;;;1.73;1.63;;;;;;;9.10;47.29;94513.22;4986873;28;20038;-74
2022/12/25 12:37:36;;;;;;;3.58;2.22;;;;;;;9.00;47.42;94494.78;4993662;28;20440;-73
2022/12/25 12:40:04;;;;;;;3.55;2.13;;;;;;;9.11;47.57;94514.81;4991764;28;20028;-75
2022/12/25 12:42:37;;;;;;;4.47;2.70;;;;;;;9.13;47.56;94506.59;4994509;28;20022;-74
2022/12/25 12:45:19;;;;;;;4.45;1.90;;;;;;;9.23;47.71;94520.50;4991111;28;20041;-74
2022/12/25 12:47:47;;;;;;;4.32;1.80;;;;;;;9.23;47.46;94525.03;4991277;28;20038;-73
2022/12/25 12:50:33;;;;;;;4.03;2.08;;;;;;;9.18;47.86;94517.13;4994029;28;20107;-75
2022/12/25 12:52:59;;;;;;;;;;;;;;;9.31;47.08;94527.81;4991013;28;20085;-75
2022/12/25 12:55:34;;;;;;;3.67;1.27;;;;;;;9.23;47.19;94527.69;4993179;28;19929;-75
2022/12/25 12:58:05;;;;;;;5.80;3.00;;;;;;;8.99;48.04;94535.66;4992144;28;20719;-72
2022/12/25 13:01:13;;;;;;;3.97;2.90;;;;;;;8.96;47.92;94521.09;4994379;28;20118;-74
2022/12/25 13:03:59;;;;;;;4.53;4.05;;;;;;;9.14;47.45;94524.88;4977061;28;20322;-74
2022/12/25 13:06:36;;;;;;;3.50;2.03;;;;;;;9.21;47.58;94533.25;4972319;28;20452;-74
2022/12/25 13:09:05;;;;;;;2.17;1.90;;;;;;;9.28;47.48;94520.44;4989122;28;20038;-74
2022/12/25 13:11:37;;;;;;;9.02;6.97;;;;;;;9.42;47.07;94534.56;4994826;28;20034;-74
2022/12/25 13:14:03;;;;;;;4.28;3.30;;;;;;;9.32;47.32;94528.59;4993934;28;20276;-74
2022/12/25 13:16:34;;;;;;;7.85;4.05;;;;;;;9.48;47.10;94531.84;4996049;28;20040;-75
2022/12/25 13:19:05;;;;;;;4.82;3.42;;;;;;;9.28;47.50;94535.56;4996504;28;20028;-74
2022/12/25 13:21:31;;;;;;;7.30;4.07;;;;;;;9.28;47.18;94527.59;4996133;28;20029;-74
2022/12/25 13:24:07;;;;;;;3.42;1.98;;;;;;;9.35;46.66;94534.13;4995872;28;20722;-74
2022/12/25 13:26:33;;;;;;;3.47;1.92;;;;;;;9.45;46.74;94539.28;4995451;28;20065;-74
2022/12/25 13:28:59;;;;;;;4.18;3.20;;;;;;;9.58;46.08;94526.38;4995282;28;20464;-73
2022/12/25 13:31:27;;;;;;;6.15;3.20;;;;;;;9.70;45.64;94538.13;4996879;28;20041;-73
2022/12/25 13:34:15;;;;;;;6.43;4.22;;;;;;;9.79;45.99;94539.03;4996226;28;20158;-74
2022/12/25 13:36:42;;;;;;;5.55;4.07;;;;;;;9.79;45.48;94546.22;4988766;28;20038;-74
2022/12/25 13:39:13;;;;;;;6.43;4.15;;;;;;;9.65;45.91;94537.41;4996000;28;20033;-73